Enter the Airport ICAO Code

Search by Airport or City

Current Weather

LEBB | Bilbao Airport

Bilbao, Basque Country, Spain

Last Update 31 Minutes Ago

Mostly Cloudy Sky

Temperature of 18 ºC

Moderate to Strong Winds from West

Temperature

18 ºC

Dew Point Temperature

13 ºC

Relative Humidity

72.7 %

Wind Direction

West (290º, Ranging from 250º to 330º)

Wind Velocity

30 km/h (16 kt)

Gusts

None

Visibility

Greater than 10 Kilometers

Sea Level Pressure

1019 hPa (Hectopascals)

Layers of Clouds

30% to 60% of Sky Covered from 884 mts (2900 ft) Above Ground Level.

60% to 90% of Sky Covered from 1433 mts (4700 ft) Above Ground Level.

METAR LEBB 202330Z AUTO 29016KT 250V330 9999 SCT029 BKN047 18/13 Q1019

Weather Forecast

LEBB | Bilbao Airport

Bilbao, Basque Country, Spain

Forecast valid for the next 24 Hours

From now on it is expected:

Mostly Cloudy Sky

Light to Moderate Winds from West

From now on it is expected 6 hours with intermittent periods of:

Moderate Winds from West with Gusts

In 10 hours it is expected the begining of 8 hours with intermittent periods of:

Moderate Winds from West with Gusts

In 22 hours it is expected the begining of 2 hours with intermittent periods of:

Rain

Maximum Temperature

19 ºC in 14 Hours

Minimum Temperature

14 ºC in 7 Hours

TAF LEBB 202300Z 2100/2124 29009KT 9999 BKN040 TX19/2114Z TN14/2107Z PROB40 TEMPO 2100/2106 28015G25KT PROB40 TEMPO 2110/2118 29015G25KT TEMPO 2122/2124 RA BKN010